Wild Rice, North Dakota
Current Conditions -  °F | °C
As of 3:32 PM on Friday 19 Dec 2014 (Local Time) from KJKJ Reporting Station
Moderate Rain Moderate Rain  
Wind Chill: -6°   Ceiling: 700
Heat Index: -1°   Visibility: 2.5mi
Dew Point: -1°   Wind: 12mph
Humidity: 100%   Direction: 160°SSE
Pressure: 30.04"   Gusts: NA
Location:  46.7039°N, 96.8572°W
Report Text: KJKJ 192132Z AUTO 16010KT 2 1/2SM RA BKN007 BKN013 OVC018 M01/M01 A3004 RMK AO2
Loading
Personal Weather Stations






























Interactive Weather Map New forecast layout! Learn more

10-Day Weather Forecast

Advertisements
Track Severe Weather on mobile